createdAt,value
2022-08-08T00:00:52.902Z,1016.59
2022-08-08T00:10:35.277Z,1016.61
2022-08-08T00:20:36.903Z,1016.69
2022-08-08T00:30:34.646Z,1016.68
2022-08-08T00:41:11.039Z,1016.60
2022-08-08T00:50:36.180Z,1016.50
2022-08-08T01:00:37.935Z,1016.53
2022-08-08T01:10:35.521Z,1016.39
2022-08-08T01:20:35.633Z,1016.40
2022-08-08T01:30:35.944Z,1016.42
2022-08-08T01:40:36.097Z,1016.48
2022-08-08T01:50:36.600Z,1016.56
2022-08-08T02:00:36.517Z,1016.56
2022-08-08T02:10:37.071Z,1016.54
2022-08-08T02:21:01.104Z,1016.67
2022-08-08T02:30:37.782Z,1016.71
2022-08-08T02:40:38.168Z,1016.76
2022-08-08T02:50:37.352Z,1016.86
2022-08-08T03:00:37.464Z,1016.79
2022-08-08T03:10:44.318Z,1016.79
2022-08-08T03:20:38.658Z,1016.79
2022-08-08T03:30:37.839Z,1016.92
2022-08-08T03:40:38.325Z,1016.93
2022-08-08T03:50:38.652Z,1016.96
2022-08-08T04:00:56.463Z,1016.96
2022-08-08T04:10:39.329Z,1016.98
2022-08-08T04:20:38.617Z,1017.02
2022-08-08T04:30:44.460Z,1017.12
2022-08-08T04:40:39.885Z,1017.25
2022-08-08T04:50:46.061Z,1017.40
2022-08-08T05:00:40.150Z,1017.48
2022-08-08T05:10:39.286Z,1017.52
2022-08-08T05:20:48.339Z,1017.46
2022-08-08T05:30:40.475Z,1017.53
2022-08-08T05:40:40.750Z,1017.61
2022-08-08T05:50:44.576Z,1017.62
2022-08-08T06:00:40.133Z,1017.63
2022-08-08T06:10:40.844Z,1017.76
2022-08-08T06:20:40.511Z,1017.84
2022-08-08T06:30:40.553Z,1017.88
2022-08-08T06:40:40.755Z,1017.92
2022-08-08T06:50:41.826Z,1017.91
2022-08-08T07:00:41.292Z,1017.94
2022-08-08T07:10:45.992Z,1018.03
2022-08-08T07:20:50.577Z,1018.05
2022-08-08T07:30:42.370Z,1018.09
2022-08-08T07:40:41.639Z,1018.07
2022-08-08T07:50:41.588Z,1018.07
2022-08-08T08:00:41.819Z,1018.04
2022-08-08T08:10:41.790Z,1018.08
2022-08-08T08:20:42.109Z,1018.12
2022-08-08T08:30:55.377Z,1018.00
2022-08-08T08:40:42.554Z,1017.99
2022-08-08T08:50:43.615Z,1018.03
2022-08-08T09:01:03.150Z,1018.07
2022-08-08T09:10:44.005Z,1018.04
2022-08-08T09:22:02.957Z,1018.03
2022-08-08T09:30:44.823Z,1018.00
2022-08-08T09:40:46.559Z,1017.96
2022-08-08T09:50:50.126Z,1017.86
2022-08-08T10:00:53.376Z,1017.82
2022-08-08T10:10:50.910Z,1017.82
2022-08-08T10:20:51.128Z,1017.69
2022-08-08T10:31:00.556Z,1017.65
2022-08-08T10:40:45.171Z,1017.64
2022-08-08T10:50:44.514Z,1017.57
2022-08-08T11:00:52.548Z,1017.45
2022-08-08T11:10:45.755Z,1017.51
2022-08-08T11:20:52.413Z,1017.37
2022-08-08T11:30:50.587Z,1017.32
2022-08-08T11:40:49.818Z,1017.32
2022-08-08T11:50:47.795Z,1017.25
2022-08-08T12:00:47.071Z,1017.24
2022-08-08T12:10:47.615Z,1017.11
2022-08-08T12:20:45.957Z,1017.01
2022-08-08T12:30:47.761Z,1016.98
2022-08-08T12:40:56.796Z,1016.87
2022-08-08T12:50:47.381Z,1016.83
2022-08-08T13:00:46.590Z,1016.82
2022-08-08T13:10:56.383Z,1016.75
2022-08-08T13:20:48.355Z,1016.76
2022-08-08T13:30:47.209Z,1016.75
2022-08-08T13:40:47.341Z,1016.63
2022-08-08T13:50:50.877Z,1016.61
2022-08-08T14:00:48.685Z,1016.56
2022-08-08T14:10:48.014Z,1016.56
2022-08-08T14:20:56.609Z,1016.53
2022-08-08T14:30:50.153Z,1016.56
2022-08-08T14:40:48.638Z,1016.60
2022-08-08T14:50:48.686Z,1016.54
2022-08-08T15:00:49.127Z,1016.57
2022-08-08T15:10:49.074Z,1016.60
2022-08-08T15:20:49.436Z,1016.56
2022-08-08T15:30:50.885Z,1016.50
2022-08-08T15:40:49.789Z,1016.49
2022-08-08T15:50:50.038Z,1016.43
2022-08-08T16:00:50.854Z,1016.49
2022-08-08T16:13:27.361Z,1016.44
2022-08-08T16:20:51.643Z,1016.47
2022-08-08T16:30:50.977Z,1016.47
2022-08-08T16:40:51.067Z,1016.45
2022-08-08T16:50:51.223Z,1016.48
2022-08-08T17:00:51.492Z,1016.45
2022-08-08T17:10:57.590Z,1016.51
2022-08-08T17:20:52.738Z,1016.60
2022-08-08T17:30:52.033Z,1016.69
2022-08-08T17:40:52.092Z,1016.83
2022-08-08T17:50:54.559Z,1016.91
2022-08-08T18:00:56.051Z,1017.04
2022-08-08T18:10:53.673Z,1017.20
2022-08-08T18:20:59.223Z,1017.23
2022-08-08T18:30:54.076Z,1017.36
2022-08-08T18:40:54.154Z,1017.39
2022-08-08T18:50:58.683Z,1017.49
2022-08-08T19:00:54.734Z,1017.62
2022-08-08T19:10:54.465Z,1017.80
2022-08-08T19:20:54.151Z,1017.94
2022-08-08T19:31:04.004Z,1018.01
2022-08-08T19:40:56.348Z,1018.06
2022-08-08T19:50:54.901Z,1018.09
2022-08-08T20:00:56.790Z,1018.20
2022-08-08T20:10:55.153Z,1018.23
2022-08-08T20:20:55.201Z,1018.30
2022-08-08T20:30:56.446Z,1018.36
2022-08-08T20:40:55.530Z,1018.38
2022-08-08T20:50:55.838Z,1018.35
2022-08-08T21:00:55.854Z,1018.43
2022-08-08T21:10:56.180Z,1018.39
2022-08-08T21:20:56.196Z,1018.43
2022-08-08T21:30:56.547Z,1018.46
2022-08-08T21:40:57.189Z,1018.40
2022-08-08T21:50:58.169Z,1018.41
2022-08-08T22:00:57.094Z,1018.35
2022-08-08T22:10:57.438Z,1018.37
2022-08-08T22:20:57.503Z,1018.36
2022-08-08T22:30:57.674Z,1018.38
2022-08-08T22:40:57.787Z,1018.31
2022-08-08T22:50:58.126Z,1018.32
2022-08-08T23:01:00.198Z,1018.27
2022-08-08T23:11:06.241Z,1018.28
2022-08-08T23:20:59.459Z,1018.25
2022-08-08T23:30:58.717Z,1018.25
2022-08-08T23:40:58.848Z,1018.20
2022-08-08T23:50:59.188Z,1018.30
